Mr Chester — WDF2686 — position and weather

sailwx.info

Track history (hours):
 
Tides and Currents Weather Stations Pressure Air Temp Water Temp Dewpoint Dewpoint Depression Visibility Wind Speed Wind Dir Waves Ship Positions

Mr Chester

Owner: Marquette Transportation Company Offshore LLC, Jefferson, LA. More information available from US FCC via Universal Licensing System and Coast Guard Vessel Documentation Center.

Last reported at 2018-Jan-23 18:59 UTC. Time now 2018-Jan-23 19:25 UTC.
Position N 32°02' W 080°55'.

Length 22 m; draft 3 m.

Type: . MMSI: 367430730.

Date/timePositionNaut miles runAvg speedWind from/ knotsBaromVisibWave heightAir tempDewpointWater temp
2018-Jan-23 18:59N 32°02' W 080°55'0 0.0
2018-Jan-23 18:30N 32°02' W 080°55'0 0.0
2018-Jan-23 18:00N 32°02' W 080°55'0 0.0
2018-Jan-23 17:30N 32°02' W 080°55'0 0.1
2018-Jan-23 17:00N 32°02' W 080°55'0 0.0
2018-Jan-23 16:30N 32°02' W 080°55'0 0.0
2018-Jan-23 16:00N 32°02' W 080°55'0 0.0
2018-Jan-23 15:30N 32°02' W 080°55'0 0.0
2018-Jan-23 15:00N 32°02' W 080°55'0 0.0
2018-Jan-23 14:30N 32°02' W 080°55'0 0.0
2018-Jan-23 14:00N 32°02' W 080°55'0 0.0
2018-Jan-23 13:30N 32°02' W 080°55'0 0.0
2018-Jan-23 13:00N 32°02' W 080°55'0 0.0
2018-Jan-23 12:30N 32°02' W 080°55'0 0.1
2018-Jan-23 12:00N 32°02' W 080°55'0 0.1
2018-Jan-23 11:30N 32°02' W 080°55'0 0.0
2018-Jan-23 11:00N 32°02' W 080°55'0 0.0
2018-Jan-23 10:30N 32°02' W 080°55'0 0.0
2018-Jan-23 10:00N 32°02' W 080°55'0 0.0
2018-Jan-23 09:30N 32°02' W 080°55'0 0.0
2018-Jan-23 08:59N 32°02' W 080°55'0 0.0
2018-Jan-23 08:30N 32°02' W 080°55'0 0.0
2018-Jan-23 08:00N 32°02' W 080°55'0 0.0
2018-Jan-23 07:30N 32°02' W 080°55'0 0.0
2018-Jan-23 06:58N 32°02' W 080°55'0 0.0
2018-Jan-23 06:30N 32°02' W 080°55'0 0.0
2018-Jan-23 05:59N 32°02' W 080°55'0 0.0
2018-Jan-23 05:30N 32°02' W 080°55'0 0.0
2018-Jan-23 05:00N 32°02' W 080°55'0 0.1
2018-Jan-23 04:30N 32°02' W 080°55'0 0.0
2018-Jan-23 04:00N 32°02' W 080°55'0 0.0
2018-Jan-23 03:30N 32°02' W 080°55'0 0.0
2018-Jan-23 03:00N 32°02' W 080°55'0 0.0
2018-Jan-23 02:30N 32°02' W 080°55'0 0.0
2018-Jan-23 02:00N 32°02' W 080°55'0 0.0
2018-Jan-23 01:30N 32°02' W 080°55'0 0.0
2018-Jan-23 01:00N 32°02' W 080°55'0 0.0
2018-Jan-23 00:30N 32°02' W 080°55'0 0.0
2018-Jan-23 00:00N 32°02' W 080°55'2 2.8
2018-Jan-22 23:22N 32°02' W 080°52'1 2.8
2018-Jan-22 23:00N 32°01' W 080°52'1 2.9
2018-Jan-22 22:30N 32°01' W 080°53'0 0.1
2018-Jan-22 22:00N 32°01' W 080°53'0 0.2
2018-Jan-22 21:30N 32°01' W 080°53'0 0.2
2018-Jan-22 21:00N 32°01' W 080°53'0 0.2
2018-Jan-22 20:30N 32°01' W 080°53'0 0.3
2018-Jan-22 19:59N 32°01' W 080°53'2 4.2
2018-Jan-22 19:30N 32°02' W 080°51'3 5.5
2018-Jan-22 19:00N 32°02' W 080°54'0 0.0
2018-Jan-22 18:29N 32°02' W 080°54'0 0.4
2018-Jan-22 18:00N 32°02' W 080°55'0 0.3
2018-Jan-22 17:30N 32°02' W 080°54'0 0.2
2018-Jan-22 17:00N 32°02' W 080°55'0 0.2
2018-Jan-22 16:30N 32°02' W 080°54'0 0.1
2018-Jan-22 16:00N 32°02' W 080°54'0 0.0
2018-Jan-22 15:30N 32°02' W 080°54'0 0.2
2018-Jan-22 14:59N 32°02' W 080°54'0 0.1
2018-Jan-22 14:30N 32°02' W 080°54'0 0.0
2018-Jan-22 14:00N 32°02' W 080°54'0 0.0
2018-Jan-22 13:30N 32°02' W 080°54'0 0.0
2018-Jan-22 13:00N 32°02' W 080°54'0 0.1
2018-Jan-22 12:30N 32°02' W 080°54'0 0.1
2018-Jan-22 12:00N 32°02' W 080°54'0 0.0
2018-Jan-22 11:30N 32°02' W 080°54'0 0.0
2018-Jan-22 11:00N 32°02' W 080°54'0 0.0
2018-Jan-22 10:26N 32°02' W 080°54'0 0.0
2018-Jan-22 10:00N 32°02' W 080°54'0 0.0
2018-Jan-22 09:30N 32°02' W 080°54'0 0.0
2018-Jan-22 09:00N 32°02' W 080°54'0 0.0
2018-Jan-22 08:28N 32°02' W 080°54'0 0.0
2018-Jan-22 07:53N 32°02' W 080°54'0 0.0
2018-Jan-22 07:30N 32°02' W 080°54'0 0.0
2018-Jan-22 07:00N 32°02' W 080°54'0 0.0
2018-Jan-22 06:30N 32°02' W 080°54'0 0.0
2018-Jan-22 06:00N 32°02' W 080°54'0 0.0
2018-Jan-22 05:30N 32°02' W 080°54'0 0.0
2018-Jan-22 05:00N 32°02' W 080°54'0 0.0
2018-Jan-22 04:30N 32°02' W 080°54'0 0.0
2018-Jan-22 04:00N 32°02' W 080°54'0 0.0
2018-Jan-22 03:30N 32°02' W 080°54'0 0.0
2018-Jan-22 03:00N 32°02' W 080°54'0 0.0
2018-Jan-22 02:30N 32°02' W 080°54'0 0.0
2018-Jan-22 02:00N 32°02' W 080°54'0 0.0
2018-Jan-22 01:30N 32°02' W 080°54'0 0.1
2018-Jan-22 00:58N 32°02' W 080°54'0 0.0
2018-Jan-22 00:30N 32°02' W 080°54'0 0.0
2018-Jan-22 00:00N 32°02' W 080°54'0 0.5
2018-Jan-21 23:30N 32°02' W 080°54'0 0.1
2018-Jan-21 23:00N 32°02' W 080°54'0 0.1
2018-Jan-21 22:30N 32°02' W 080°54'0 0.1
2018-Jan-21 22:00N 32°02' W 080°54'0 0.1
2018-Jan-21 21:30N 32°02' W 080°54'0 0.1
2018-Jan-21 21:00N 32°02' W 080°54'0 0.0
2018-Jan-21 20:29N 32°02' W 080°54'0 0.3
2018-Jan-21 20:00N 32°02' W 080°55'0 0.0
2018-Jan-21 19:30N 32°02' W 080°55'0 0.0
2018-Jan-21 19:00N 32°02' W 080°55'0 0.0
2018-Jan-21 18:28N 32°02' W 080°55'2 2.9
2018-Jan-21 17:53N 32°02' W 080°53'2 3.4
2018-Jan-21 17:26N 32°02' W 080°54'0 0.1
2018-Jan-21 17:00N 32°02' W 080°54'0 0.2
2018-Jan-21 16:30N 32°02' W 080°54'0 0.0
2018-Jan-21 16:00N 32°02' W 080°54'0 0.0
2018-Jan-21 15:30N 32°02' W 080°54'0 0.0
2018-Jan-21 15:00N 32°02' W 080°54'0 0.1
2018-Jan-21 14:30N 32°02' W 080°54'0 0.1
2018-Jan-21 14:00N 32°02' W 080°54'0 0.2
2018-Jan-21 13:30N 32°02' W 080°54'0 0.1
2018-Jan-21 13:00N 32°02' W 080°54'0 0.3
2018-Jan-21 12:30N 32°02' W 080°54'0 0.0
2018-Jan-21 12:00N 32°02' W 080°55'0 0.0
2018-Jan-21 11:30N 32°02' W 080°54'0 0.0
2018-Jan-21 11:00N 32°02' W 080°54'0 0.0
2018-Jan-21 10:30N 32°02' W 080°54'0 0.0
2018-Jan-21 09:58N 32°02' W 080°54'0 0.0
2018-Jan-21 09:30N 32°02' W 080°54'0 0.0
2018-Jan-21 09:00N 32°02' W 080°54'0 0.0
2018-Jan-21 08:29N 32°02' W 080°54'0 0.0
2018-Jan-21 07:50N 32°02' W 080°54'0 0.0
2018-Jan-21 07:30N 32°02' W 080°54'0 0.0
2018-Jan-21 06:59N 32°02' W 080°54'0 0.0
2018-Jan-21 06:28N 32°02' W 080°55'0 0.0
2018-Jan-21 06:00N 32°02' W 080°54'0 0.0
2018-Jan-21 05:26N 32°02' W 080°54'0 0.0
2018-Jan-21 05:00N 32°02' W 080°54'0 0.0
2018-Jan-21 04:30N 32°02' W 080°54'0 0.0
2018-Jan-21 04:00N 32°02' W 080°54'0 0.0
2018-Jan-21 03:29N 32°02' W 080°55'0 0.0
2018-Jan-21 02:57N 32°02' W 080°54'0 0.0
2018-Jan-21 02:28N 32°02' W 080°54'0 0.0
2018-Jan-21 02:00N 32°02' W 080°54'0 0.0
2018-Jan-21 01:30N 32°02' W 080°54'0 0.0
2018-Jan-21 01:00N 32°02' W 080°54'0 0.0
2018-Jan-21 00:30N 32°02' W 080°55'0 0.0
2018-Jan-20 23:59N 32°02' W 080°55'0 0.0
2018-Jan-20 23:30N 32°02' W 080°54'0 0.0
2018-Jan-20 23:00N 32°02' W 080°54'0 0.0
2018-Jan-20 22:29N 32°02' W 080°55'0 0.0
2018-Jan-20 21:59N 32°02' W 080°54'0 0.0
2018-Jan-20 21:28N 32°02' W 080°54'0 0.0
2018-Jan-20 21:00N 32°02' W 080°54'0 0.0
2018-Jan-20 20:29N 32°02' W 080°54'0 0.1
2018-Jan-20 20:00N 32°02' W 080°54'0 0.0
2018-Jan-20 18:32N 32°02' W 080°54'0 0.0
2018-Jan-20 18:30N 32°02' W 080°54'0 0.0
2018-Jan-20 18:00N 32°02' W 080°54'0 0.2
2018-Jan-20 17:30N 32°02' W 080°54'0 0.1
2018-Jan-20 17:00N 32°02' W 080°54'0 0.2
2018-Jan-20 16:30N 32°02' W 080°54'0 0.0
2018-Jan-20 16:00N 32°02' W 080°54'0 0.1
2018-Jan-20 15:30N 32°02' W 080°54'1 1.8
2018-Jan-20 14:59N 32°02' W 080°53'2 3.7
2018-Jan-20 14:30N 32°02' W 080°51'2 3.5
2018-Jan-20 14:00N 32°01' W 080°53'1 2.5
2018-Jan-20 13:30N 32°02' W 080°52'2 3.7
2018-Jan-20 13:00N 32°02' W 080°54'0 0.0
2018-Jan-20 12:30N 32°02' W 080°54'0 0.0
2018-Jan-20 12:00N 32°02' W 080°54'0 0.0
2018-Jan-20 11:30N 32°02' W 080°54'0 0.0
2018-Jan-20 11:00N 32°02' W 080°54'0 0.0
2018-Jan-20 10:30N 32°02' W 080°54'0 0.2
2018-Jan-20 10:00N 32°02' W 080°54'0 0.0
2018-Jan-20 09:30N 32°02' W 080°54'0 0.0
2018-Jan-20 09:00N 32°02' W 080°54'0 0.0
2018-Jan-20 08:30N 32°02' W 080°54'0 0.0
2018-Jan-20 08:00N 32°02' W 080°54'0 0.0
2018-Jan-20 07:30N 32°02' W 080°54'0 0.0
2018-Jan-20 07:00N 32°02' W 080°54'0 0.0
2018-Jan-20 06:30N 32°02' W 080°54'0 0.0
2018-Jan-20 06:00N 32°02' W 080°54'0 0.0
2018-Jan-20 05:30N 32°02' W 080°54'0 0.0
2018-Jan-20 05:00N 32°02' W 080°54'0 0.0
2018-Jan-20 04:30N 32°02' W 080°54'0 0.0
2018-Jan-20 04:00N 32°02' W 080°54'0 0.2
2018-Jan-20 03:30N 32°02' W 080°54'0 0.0
2018-Jan-20 03:00N 32°02' W 080°54'0 0.0
2018-Jan-20 02:30N 32°02' W 080°54'1 1.8
2018-Jan-20 02:00N 32°02' W 080°53'1 2.0
2018-Jan-20 01:30N 32°01' W 080°53'0 0.6
2018-Jan-20 01:00N 32°01' W 080°53'0 0.0
2018-Jan-20 00:30N 32°01' W 080°53'0 0.0
2018-Jan-20 00:00N 32°01' W 080°53'0 0.0
2018-Jan-19 23:30N 32°01' W 080°53'0 0.0
2018-Jan-19 23:00N 32°01' W 080°53'0 0.0
2018-Jan-19 22:30N 32°01' W 080°53'2 3.1
2018-Jan-19 22:00N 32°02' W 080°52'1 2.7
2018-Jan-19 21:30N 32°02' W 080°53'1 2.4
2018-Jan-19 21:00N 32°02' W 080°54'0 0.0
2018-Jan-19 20:30N 32°02' W 080°54'0 0.1
2018-Jan-19 20:00N 32°02' W 080°54'0 0.1
2018-Jan-19 19:30N 32°02' W 080°54'0 0.2
2018-Jan-19 19:00N 32°02' W 080°54'0 0.1
2018-Jan-19 18:30N 32°02' W 080°54'0 0.2
2018-Jan-19 18:00N 32°02' W 080°54'0 0.0
2018-Jan-19 17:30N 32°02' W 080°54'0 0.0
2018-Jan-19 17:00N 32°02' W 080°54'0 0.0
2018-Jan-19 16:30N 32°02' W 080°54'0 0.1
2018-Jan-19 16:00N 32°02' W 080°54'0 0.1
2018-Jan-19 15:30N 32°02' W 080°54'0 0.1
2018-Jan-19 15:00N 32°02' W 080°54'0 0.1
2018-Jan-19 14:30N 32°02' W 080°54'0 0.1
2018-Jan-19 14:00N 32°02' W 080°54'3 5.7
2018-Jan-19 13:30N 32°02' W 080°51'2 0.3
2018-Jan-19 05:59N 32°01' W 080°53'0 0.0
2018-Jan-19 05:30N 32°01' W 080°53'0 0.0
2018-Jan-19 05:00N 32°01' W 080°53'0 0.3
2018-Jan-19 04:30N 32°01' W 080°53'1 1.8
2018-Jan-19 04:00N 32°02' W 080°53'5 9.1
2018-Jan-19 03:30N 32°04' W 080°58'3 7.0
2018-Jan-19 03:00N 32°05' W 081°01'4 6.9
2018-Jan-19 02:29N 32°05' W 081°06'1 1.9
2018-Jan-19 02:00N 32°06' W 081°07'0 0.0
2018-Jan-19 01:30N 32°06' W 081°07'0 0.0
2018-Jan-19 01:00N 32°06' W 081°07'0 0.0
2018-Jan-19 00:29N 32°06' W 081°07'0 0.1
2018-Jan-19 00:00N 32°06' W 081°07'4 7.9
2018-Jan-18 23:30N 32°05' W 081°02'4 7.0
2018-Jan-18 23:00N 32°04' W 080°58'5 2.8
2018-Jan-18 21:14N 32°01' W 080°53'0 0.0
2018-Jan-18 21:00N 32°01' W 080°53'0 0.2
2018-Jan-18 20:30N 32°01' W 080°53'3 5.1
2018-Jan-18 20:00N 32°02' W 080°50'1 1.6
2018-Jan-18 19:30N 32°02' W 080°49'2 3.5
2018-Jan-18 19:00N 32°02' W 080°51'2 3.2
2018-Jan-18 18:30N 32°01' W 080°53'0 0.0
2018-Jan-18 17:42N 32°01' W 080°53'0 0.0
2018-Jan-18 17:29N 32°01' W 080°53'0 0.0
2018-Jan-18 17:00N 32°01' W 080°53'0 0.1
2018-Jan-18 16:30N 32°01' W 080°53'2 3.4
2018-Jan-18 16:00N 32°02' W 080°51'3 5.1
2018-Jan-18 15:29N 32°02' W 080°54'3 5.0
2018-Jan-18 14:56N 32°02' W 080°51'2 4.5
2018-Jan-18 14:30N 32°01' W 080°53'1 2.8
2018-Jan-18 14:00N 32°01' W 080°52'2 4.7
2018-Jan-18 13:30N 32°02' W 080°49'1 1.5
2018-Jan-18 13:00N 32°01' W 080°48'0 0.6
2018-Jan-18 12:30N 32°01' W 080°48'0 0.6
2018-Jan-18 12:00N 32°01' W 080°48'0 0.1
2018-Jan-18 11:30N 32°01' W 080°48'1 1.9
2018-Jan-18 11:00N 32°01' W 080°49'1 2.8
2018-Jan-18 10:30N 32°02' W 080°50'1 1.8
2018-Jan-18 09:58N 32°02' W 080°51'0 0.0
2018-Jan-18 09:30N 32°02' W 080°51'0 0.0
2018-Jan-18 09:00N 32°02' W 080°51'0 0.1
2018-Jan-18 08:30N 32°02' W 080°51'0 0.0
2018-Jan-18 08:00N 32°02' W 080°51'0 0.0
2018-Jan-18 07:30N 32°02' W 080°51'0 0.0
2018-Jan-18 07:00N 32°02' W 080°51'0 0.0
2018-Jan-18 06:29N 32°02' W 080°51'0 0.0
2018-Jan-18 06:00N 32°02' W 080°51'0 0.0
2018-Jan-18 05:30N 32°02' W 080°51'0 0.0
2018-Jan-18 05:00N 32°02' W 080°51'0 0.0
2018-Jan-18 04:30N 32°02' W 080°51'1 0.4
2018-Jan-18 03:06N 32°02' W 080°50'0 2.6
2018-Jan-18 03:00N 32°02' W 080°50'1 2.9
2018-Jan-18 02:30N 32°01' W 080°49'1 2.2
2018-Jan-18 02:00N 32°01' W 080°48'1 1.8
2018-Jan-18 01:30N 32°01' W 080°49'1 2.7
2018-Jan-18 01:00N 32°02' W 080°50'3 3.0
2018-Jan-17 23:58N 32°01' W 080°53'0 0.3
2018-Jan-17 23:57N 32°01' W 080°53'  
Track history (hours):
 
Tides and Currents Weather Stations Pressure Air Temp Water Temp Dewpoint Dewpoint Depression Visibility Wind Speed Wind Dir Waves Ship Positions

Mr Chester

Owner: Marquette Transportation Company Offshore LLC, Jefferson, LA. More information available from US FCC via Universal Licensing System and Coast Guard Vessel Documentation Center.

Last reported at 2018-Jan-23 18:59 UTC. Time now 2018-Jan-23 19:25 UTC.
Position N 32°02' W 080°55'.

Length 22 m; draft 3 m.

Type: . MMSI: 367430730.

Date/timePositionNaut miles runAvg speedWind from/ knotsBaromVisibWave heightAir tempDewpointWater temp
2018-Jan-23 18:59N 32°02' W 080°55'0 0.0
2018-Jan-23 18:30N 32°02' W 080°55'0 0.0
2018-Jan-23 18:00N 32°02' W 080°55'0 0.0
2018-Jan-23 17:30N 32°02' W 080°55'0 0.1
2018-Jan-23 17:00N 32°02' W 080°55'0 0.0
2018-Jan-23 16:30N 32°02' W 080°55'0 0.0
2018-Jan-23 16:00N 32°02' W 080°55'0 0.0
2018-Jan-23 15:30N 32°02' W 080°55'0 0.0
2018-Jan-23 15:00N 32°02' W 080°55'0 0.0
2018-Jan-23 14:30N 32°02' W 080°55'0 0.0
2018-Jan-23 14:00N 32°02' W 080°55'0 0.0
2018-Jan-23 13:30N 32°02' W 080°55'0 0.0
2018-Jan-23 13:00N 32°02' W 080°55'0 0.0
2018-Jan-23 12:30N 32°02' W 080°55'0 0.1
2018-Jan-23 12:00N 32°02' W 080°55'0 0.1
2018-Jan-23 11:30N 32°02' W 080°55'0 0.0
2018-Jan-23 11:00N 32°02' W 080°55'0 0.0
2018-Jan-23 10:30N 32°02' W 080°55'0 0.0
2018-Jan-23 10:00N 32°02' W 080°55'0 0.0
2018-Jan-23 09:30N 32°02' W 080°55'0 0.0
2018-Jan-23 08:59N 32°02' W 080°55'0 0.0
2018-Jan-23 08:30N 32°02' W 080°55'0 0.0
2018-Jan-23 08:00N 32°02' W 080°55'0 0.0
2018-Jan-23 07:30N 32°02' W 080°55'0 0.0
2018-Jan-23 06:58N 32°02' W 080°55'0 0.0
2018-Jan-23 06:30N 32°02' W 080°55'0 0.0
2018-Jan-23 05:59N 32°02' W 080°55'0 0.0
2018-Jan-23 05:30N 32°02' W 080°55'0 0.0
2018-Jan-23 05:00N 32°02' W 080°55'0 0.1
2018-Jan-23 04:30N 32°02' W 080°55'0 0.0
2018-Jan-23 04:00N 32°02' W 080°55'0 0.0
2018-Jan-23 03:30N 32°02' W 080°55'0 0.0
2018-Jan-23 03:00N 32°02' W 080°55'0 0.0
2018-Jan-23 02:30N 32°02' W 080°55'0 0.0
2018-Jan-23 02:00N 32°02' W 080°55'0 0.0
2018-Jan-23 01:30N 32°02' W 080°55'0 0.0
2018-Jan-23 01:00N 32°02' W 080°55'0 0.0
2018-Jan-23 00:30N 32°02' W 080°55'0 0.0
2018-Jan-23 00:00N 32°02' W 080°55'2 2.8
2018-Jan-22 23:22N 32°02' W 080°52'1 2.8
2018-Jan-22 23:00N 32°01' W 080°52'1 2.9
2018-Jan-22 22:30N 32°01' W 080°53'0 0.1
2018-Jan-22 22:00N 32°01' W 080°53'0 0.2
2018-Jan-22 21:30N 32°01' W 080°53'0 0.2
2018-Jan-22 21:00N 32°01' W 080°53'0 0.2
2018-Jan-22 20:30N 32°01' W 080°53'0 0.3
2018-Jan-22 19:59N 32°01' W 080°53'2 4.2
2018-Jan-22 19:30N 32°02' W 080°51'3 5.5
2018-Jan-22 19:00N 32°02' W 080°54'0 0.0
2018-Jan-22 18:29N 32°02' W 080°54'0 0.4
2018-Jan-22 18:00N 32°02' W 080°55'0 0.3
2018-Jan-22 17:30N 32°02' W 080°54'0 0.2
2018-Jan-22 17:00N 32°02' W 080°55'0 0.2
2018-Jan-22 16:30N 32°02' W 080°54'0 0.1
2018-Jan-22 16:00N 32°02' W 080°54'0 0.0
2018-Jan-22 15:30N 32°02' W 080°54'0 0.2
2018-Jan-22 14:59N 32°02' W 080°54'0 0.1
2018-Jan-22 14:30N 32°02' W 080°54'0 0.0
2018-Jan-22 14:00N 32°02' W 080°54'0 0.0
2018-Jan-22 13:30N 32°02' W 080°54'0 0.0
2018-Jan-22 13:00N 32°02' W 080°54'0 0.1
2018-Jan-22 12:30N 32°02' W 080°54'0 0.1
2018-Jan-22 12:00N 32°02' W 080°54'0 0.0
2018-Jan-22 11:30N 32°02' W 080°54'0 0.0
2018-Jan-22 11:00N 32°02' W 080°54'0 0.0
2018-Jan-22 10:26N 32°02' W 080°54'0 0.0
2018-Jan-22 10:00N 32°02' W 080°54'0 0.0
2018-Jan-22 09:30N 32°02' W 080°54'0 0.0
2018-Jan-22 09:00N 32°02' W 080°54'0 0.0
2018-Jan-22 08:28N 32°02' W 080°54'0 0.0
2018-Jan-22 07:53N 32°02' W 080°54'0 0.0
2018-Jan-22 07:30N 32°02' W 080°54'0 0.0
2018-Jan-22 07:00N 32°02' W 080°54'0 0.0
2018-Jan-22 06:30N 32°02' W 080°54'0 0.0
2018-Jan-22 06:00N 32°02' W 080°54'0 0.0
2018-Jan-22 05:30N 32°02' W 080°54'0 0.0
2018-Jan-22 05:00N 32°02' W 080°54'0 0.0
2018-Jan-22 04:30N 32°02' W 080°54'0 0.0
2018-Jan-22 04:00N 32°02' W 080°54'0 0.0
2018-Jan-22 03:30N 32°02' W 080°54'0 0.0
2018-Jan-22 03:00N 32°02' W 080°54'0 0.0
2018-Jan-22 02:30N 32°02' W 080°54'0 0.0
2018-Jan-22 02:00N 32°02' W 080°54'0 0.0
2018-Jan-22 01:30N 32°02' W 080°54'0 0.1
2018-Jan-22 00:58N 32°02' W 080°54'0 0.0
2018-Jan-22 00:30N 32°02' W 080°54'0 0.0
2018-Jan-22 00:00N 32°02' W 080°54'0 0.5
2018-Jan-21 23:30N 32°02' W 080°54'0 0.1
2018-Jan-21 23:00N 32°02' W 080°54'0 0.1
2018-Jan-21 22:30N 32°02' W 080°54'0 0.1
2018-Jan-21 22:00N 32°02' W 080°54'0 0.1
2018-Jan-21 21:30N 32°02' W 080°54'0 0.1
2018-Jan-21 21:00N 32°02' W 080°54'0 0.0
2018-Jan-21 20:29N 32°02' W 080°54'0 0.3
2018-Jan-21 20:00N 32°02' W 080°55'0 0.0
2018-Jan-21 19:30N 32°02' W 080°55'0 0.0
2018-Jan-21 19:00N 32°02' W 080°55'0 0.0
2018-Jan-21 18:28N 32°02' W 080°55'2 2.9
2018-Jan-21 17:53N 32°02' W 080°53'2 3.4
2018-Jan-21 17:26N 32°02' W 080°54'0 0.1
2018-Jan-21 17:00N 32°02' W 080°54'0 0.2
2018-Jan-21 16:30N 32°02' W 080°54'0 0.0
2018-Jan-21 16:00N 32°02' W 080°54'0 0.0
2018-Jan-21 15:30N 32°02' W 080°54'0 0.0
2018-Jan-21 15:00N 32°02' W 080°54'0 0.1
2018-Jan-21 14:30N 32°02' W 080°54'0 0.1
2018-Jan-21 14:00N 32°02' W 080°54'0 0.2
2018-Jan-21 13:30N 32°02' W 080°54'0 0.1
2018-Jan-21 13:00N 32°02' W 080°54'0 0.3
2018-Jan-21 12:30N 32°02' W 080°54'0 0.0
2018-Jan-21 12:00N 32°02' W 080°55'0 0.0
2018-Jan-21 11:30N 32°02' W 080°54'0 0.0
2018-Jan-21 11:00N 32°02' W 080°54'0 0.0
2018-Jan-21 10:30N 32°02' W 080°54'0 0.0
2018-Jan-21 09:58N 32°02' W 080°54'0 0.0
2018-Jan-21 09:30N 32°02' W 080°54'0 0.0
2018-Jan-21 09:00N 32°02' W 080°54'0 0.0
2018-Jan-21 08:29N 32°02' W 080°54'0 0.0
2018-Jan-21 07:50N 32°02' W 080°54'0 0.0
2018-Jan-21 07:30N 32°02' W 080°54'0 0.0
2018-Jan-21 06:59N 32°02' W 080°54'0 0.0
2018-Jan-21 06:28N 32°02' W 080°55'0 0.0
2018-Jan-21 06:00N 32°02' W 080°54'0 0.0
2018-Jan-21 05:26N 32°02' W 080°54'0 0.0
2018-Jan-21 05:00N 32°02' W 080°54'0 0.0
2018-Jan-21 04:30N 32°02' W 080°54'0 0.0
2018-Jan-21 04:00N 32°02' W 080°54'0 0.0
2018-Jan-21 03:29N 32°02' W 080°55'0 0.0
2018-Jan-21 02:57N 32°02' W 080°54'0 0.0
2018-Jan-21 02:28N 32°02' W 080°54'0 0.0
2018-Jan-21 02:00N 32°02' W 080°54'0 0.0
2018-Jan-21 01:30N 32°02' W 080°54'0 0.0
2018-Jan-21 01:00N 32°02' W 080°54'0 0.0
2018-Jan-21 00:30N 32°02' W 080°55'0 0.0
2018-Jan-20 23:59N 32°02' W 080°55'0 0.0
2018-Jan-20 23:30N 32°02' W 080°54'0 0.0
2018-Jan-20 23:00N 32°02' W 080°54'0 0.0
2018-Jan-20 22:29N 32°02' W 080°55'0 0.0
2018-Jan-20 21:59N 32°02' W 080°54'0 0.0
2018-Jan-20 21:28N 32°02' W 080°54'0 0.0
2018-Jan-20 21:00N 32°02' W 080°54'0 0.0
2018-Jan-20 20:29N 32°02' W 080°54'0 0.1
2018-Jan-20 20:00N 32°02' W 080°54'0 0.0
2018-Jan-20 18:32N 32°02' W 080°54'0 0.0
2018-Jan-20 18:30N 32°02' W 080°54'0 0.0
2018-Jan-20 18:00N 32°02' W 080°54'0 0.2
2018-Jan-20 17:30N 32°02' W 080°54'0 0.1
2018-Jan-20 17:00N 32°02' W 080°54'0 0.2
2018-Jan-20 16:30N 32°02' W 080°54'0 0.0
2018-Jan-20 16:00N 32°02' W 080°54'0 0.1
2018-Jan-20 15:30N 32°02' W 080°54'1 1.8
2018-Jan-20 14:59N 32°02' W 080°53'2 3.7
2018-Jan-20 14:30N 32°02' W 080°51'2 3.5
2018-Jan-20 14:00N 32°01' W 080°53'1 2.5
2018-Jan-20 13:30N 32°02' W 080°52'2 3.7
2018-Jan-20 13:00N 32°02' W 080°54'0 0.0
2018-Jan-20 12:30N 32°02' W 080°54'0 0.0
2018-Jan-20 12:00N 32°02' W 080°54'0 0.0
2018-Jan-20 11:30N 32°02' W 080°54'0 0.0
2018-Jan-20 11:00N 32°02' W 080°54'0 0.0
2018-Jan-20 10:30N 32°02' W 080°54'0 0.2
2018-Jan-20 10:00N 32°02' W 080°54'0 0.0
2018-Jan-20 09:30N 32°02' W 080°54'0 0.0
2018-Jan-20 09:00N 32°02' W 080°54'0 0.0
2018-Jan-20 08:30N 32°02' W 080°54'0 0.0
2018-Jan-20 08:00N 32°02' W 080°54'0 0.0
2018-Jan-20 07:30N 32°02' W 080°54'0 0.0
2018-Jan-20 07:00N 32°02' W 080°54'0 0.0
2018-Jan-20 06:30N 32°02' W 080°54'0 0.0
2018-Jan-20 06:00N 32°02' W 080°54'0 0.0
2018-Jan-20 05:30N 32°02' W 080°54'0 0.0
2018-Jan-20 05:00N 32°02' W 080°54'0 0.0
2018-Jan-20 04:30N 32°02' W 080°54'0 0.0
2018-Jan-20 04:00N 32°02' W 080°54'0 0.2
2018-Jan-20 03:30N 32°02' W 080°54'0 0.0
2018-Jan-20 03:00N 32°02' W 080°54'0 0.0
2018-Jan-20 02:30N 32°02' W 080°54'1 1.8
2018-Jan-20 02:00N 32°02' W 080°53'1 2.0
2018-Jan-20 01:30N 32°01' W 080°53'0 0.6
2018-Jan-20 01:00N 32°01' W 080°53'0 0.0
2018-Jan-20 00:30N 32°01' W 080°53'0 0.0
2018-Jan-20 00:00N 32°01' W 080°53'0 0.0
2018-Jan-19 23:30N 32°01' W 080°53'0 0.0
2018-Jan-19 23:00N 32°01' W 080°53'0 0.0
2018-Jan-19 22:30N 32°01' W 080°53'2 3.1
2018-Jan-19 22:00N 32°02' W 080°52'1 2.7
2018-Jan-19 21:30N 32°02' W 080°53'1 2.4
2018-Jan-19 21:00N 32°02' W 080°54'0 0.0
2018-Jan-19 20:30N 32°02' W 080°54'0 0.1
2018-Jan-19 20:00N 32°02' W 080°54'0 0.1
2018-Jan-19 19:30N 32°02' W 080°54'0 0.2
2018-Jan-19 19:00N 32°02' W 080°54'0 0.1
2018-Jan-19 18:30N 32°02' W 080°54'0 0.2
2018-Jan-19 18:00N 32°02' W 080°54'0 0.0
2018-Jan-19 17:30N 32°02' W 080°54'0 0.0
2018-Jan-19 17:00N 32°02' W 080°54'0 0.0
2018-Jan-19 16:30N 32°02' W 080°54'0 0.1
2018-Jan-19 16:00N 32°02' W 080°54'0 0.1
2018-Jan-19 15:30N 32°02' W 080°54'0 0.1
2018-Jan-19 15:00N 32°02' W 080°54'0 0.1
2018-Jan-19 14:30N 32°02' W 080°54'0 0.1
2018-Jan-19 14:00N 32°02' W 080°54'3 5.7
2018-Jan-19 13:30N 32°02' W 080°51'2 0.3
2018-Jan-19 05:59N 32°01' W 080°53'0 0.0
2018-Jan-19 05:30N 32°01' W 080°53'0 0.0
2018-Jan-19 05:00N 32°01' W 080°53'0 0.3
2018-Jan-19 04:30N 32°01' W 080°53'1 1.8
2018-Jan-19 04:00N 32°02' W 080°53'5 9.1
2018-Jan-19 03:30N 32°04' W 080°58'3 7.0
2018-Jan-19 03:00N 32°05' W 081°01'4 6.9
2018-Jan-19 02:29N 32°05' W 081°06'1 1.9
2018-Jan-19 02:00N 32°06' W 081°07'0 0.0
2018-Jan-19 01:30N 32°06' W 081°07'0 0.0
2018-Jan-19 01:00N 32°06' W 081°07'0 0.0
2018-Jan-19 00:29N 32°06' W 081°07'0 0.1
2018-Jan-19 00:00N 32°06' W 081°07'4 7.9
2018-Jan-18 23:30N 32°05' W 081°02'4 7.0
2018-Jan-18 23:00N 32°04' W 080°58'5 2.8
2018-Jan-18 21:14N 32°01' W 080°53'0 0.0
2018-Jan-18 21:00N 32°01' W 080°53'0 0.2
2018-Jan-18 20:30N 32°01' W 080°53'3 5.1
2018-Jan-18 20:00N 32°02' W 080°50'1 1.6
2018-Jan-18 19:30N 32°02' W 080°49'2 3.5
2018-Jan-18 19:00N 32°02' W 080°51'2 3.2
2018-Jan-18 18:30N 32°01' W 080°53'0 0.0
2018-Jan-18 17:42N 32°01' W 080°53'0 0.0
2018-Jan-18 17:29N 32°01' W 080°53'0 0.0
2018-Jan-18 17:00N 32°01' W 080°53'0 0.1
2018-Jan-18 16:30N 32°01' W 080°53'2 3.4
2018-Jan-18 16:00N 32°02' W 080°51'3 5.1
2018-Jan-18 15:29N 32°02' W 080°54'3 5.0
2018-Jan-18 14:56N 32°02' W 080°51'2 4.5
2018-Jan-18 14:30N 32°01' W 080°53'1 2.8
2018-Jan-18 14:00N 32°01' W 080°52'2 4.7
2018-Jan-18 13:30N 32°02' W 080°49'1 1.5
2018-Jan-18 13:00N 32°01' W 080°48'0 0.6
2018-Jan-18 12:30N 32°01' W 080°48'0 0.6
2018-Jan-18 12:00N 32°01' W 080°48'0 0.1
2018-Jan-18 11:30N 32°01' W 080°48'1 1.9
2018-Jan-18 11:00N 32°01' W 080°49'1 2.8
2018-Jan-18 10:30N 32°02' W 080°50'1 1.8
2018-Jan-18 09:58N 32°02' W 080°51'0 0.0
2018-Jan-18 09:30N 32°02' W 080°51'0 0.0
2018-Jan-18 09:00N 32°02' W 080°51'0 0.1
2018-Jan-18 08:30N 32°02' W 080°51'0 0.0
2018-Jan-18 08:00N 32°02' W 080°51'0 0.0
2018-Jan-18 07:30N 32°02' W 080°51'0 0.0
2018-Jan-18 07:00N 32°02' W 080°51'0 0.0
2018-Jan-18 06:29N 32°02' W 080°51'0 0.0
2018-Jan-18 06:00N 32°02' W 080°51'0 0.0
2018-Jan-18 05:30N 32°02' W 080°51'0 0.0
2018-Jan-18 05:00N 32°02' W 080°51'0 0.0
2018-Jan-18 04:30N 32°02' W 080°51'1 0.4
2018-Jan-18 03:06N 32°02' W 080°50'0 2.6
2018-Jan-18 03:00N 32°02' W 080°50'1 2.9
2018-Jan-18 02:30N 32°01' W 080°49'1 2.2
2018-Jan-18 02:00N 32°01' W 080°48'1 1.8
2018-Jan-18 01:30N 32°01' W 080°49'1 2.7
2018-Jan-18 01:00N 32°02' W 080°50'3 3.0
2018-Jan-17 23:58N 32°01' W 080°53'0 0.3
2018-Jan-17 23:57N 32°01' W 080°53'  

Dump ship's entire track history